Time;durP1;ratioP1;P1;durP2;ratioP2;P2;SDS_P1;SDS_P2;PMS_P1;PMS_P2;Temp;Humidity;BMP_temperature;BMP_pressure;BME280_temperature;BME280_humidity;BME280_pressure;Samples;Min_cycle;Max_cycle;Signal;HPM_P1;HPM_P2
2021/05/01 00:01:33;;;;;;;;;;;20.40;48.10;;;;;;5033871;28;19985;-74
2021/05/01 00:03:59;;;;;;;;;;;20.40;48.30;;;;;;5051650;28;19920;-74
2021/05/01 00:06:25;;;;;;;;;;;20.40;48.10;;;;;;5027525;28;19964;-73
2021/05/01 00:08:51;;;;;;;;;;;20.20;48.70;;;;;;5038116;28;19980;-73
2021/05/01 00:11:18;;;;;;;;;;;20.20;48.80;;;;;;5042536;28;19913;-73
2021/05/01 00:13:45;;;;;;;;;;;20.10;48.50;;;;;;5042137;28;19913;-74
2021/05/01 00:16:11;;;;;;;;;;;20.00;48.70;;;;;;5039270;28;20401;-74
2021/05/01 00:18:37;;;;;;;;;;;20.00;48.50;;;;;;5043937;28;19925;-74
2021/05/01 00:21:03;;;;;;;;;;;20.10;48.70;;;;;;5042105;28;19948;-76
2021/05/01 00:23:30;;;;;;;;;;;20.10;48.70;;;;;;5068726;28;20255;-76
2021/05/01 00:25:56;;;;;;;;;;;20.20;48.60;;;;;;5047767;28;19909;-76
2021/05/01 00:28:22;;;;;;;;;;;20.20;48.40;;;;;;5057774;28;19924;-75
2021/05/01 00:30:48;;;;;;;;;;;20.20;48.20;;;;;;5036657;28;19945;-75
2021/05/01 00:33:14;;;;;;;;;;;20.20;48.40;;;;;;5032082;28;19932;-76
2021/05/01 00:35:42;;;;;;;;;;;20.00;48.10;;;;;;5034352;28;19914;-75
2021/05/01 00:38:09;;;;;;;;;;;20.10;48.50;;;;;;5032440;28;19925;-75
2021/05/01 00:40:35;;;;;;;;;;;20.10;48.60;;;;;;5044713;28;20012;-75
2021/05/01 00:43:01;;;;;;;;;;;20.00;48.50;;;;;;5045739;28;19939;-75
2021/05/01 00:45:27;;;;;;;;;;;20.00;48.30;;;;;;5043256;28;20308;-75
2021/05/01 00:47:53;;;;;;;;;;;19.90;48.60;;;;;;5045321;28;19965;-74
2021/05/01 00:50:19;;;;;;;;;;;20.00;48.90;;;;;;5040533;28;20108;-75
2021/05/01 00:52:45;;;;;;;;;;;20.00;49.20;;;;;;5047217;28;19920;-75
2021/05/01 00:55:12;;;;;;;;;;;20.00;49.30;;;;;;5047921;28;20020;-75
2021/05/01 00:57:39;;;;;;;;;;;19.70;49.70;;;;;;5065559;28;19913;-75
2021/05/01 01:00:12;;;;;;;;;;;19.60;50.40;;;;;;5062630;28;19917;-75
2021/05/01 01:02:38;;;;;;;;;;;19.30;51.10;;;;;;5053246;28;20346;-75
2021/05/01 01:05:04;;;;;;;;;;;19.10;51.50;;;;;;5046538;28;20330;-75
2021/05/01 01:07:30;;;;;;;;;;;19.00;51.80;;;;;;5043366;28;19913;-73
2021/05/01 01:09:56;;;;;;;;;;;18.90;51.90;;;;;;5040379;28;20305;-75
2021/05/01 01:12:22;;;;;;;;;;;18.80;52.30;;;;;;5052596;28;20369;-76
2021/05/01 01:14:48;;;;;;;;;;;18.70;52.60;;;;;;5060306;28;19909;-75
2021/05/01 01:17:15;;;;;;;;;;;18.60;53.00;;;;;;5077002;28;19908;-75
2021/05/01 01:19:41;;;;;;;;;;;18.50;53.10;;;;;;5059340;28;20645;-74
2021/05/01 01:22:16;;;;;;;;;;;18.40;53.00;;;;;;5043809;28;19948;-75
2021/05/01 01:24:43;;;;;;;;;;;18.20;52.90;;;;;;5037655;28;20067;-75
2021/05/01 01:27:09;;;;;;;;;;;18.20;54.30;;;;;;5043749;28;19913;-74
2021/05/01 01:29:39;;;;;;;;;;;18.10;54.50;;;;;;5031654;28;19949;-74
2021/05/01 01:32:09;;;;;;;;;;;18.10;55.00;;;;;;5049725;28;19924;-74
2021/05/01 01:34:35;;;;;;;;;;;18.00;55.50;;;;;;5049675;28;19913;-74
2021/05/01 01:37:01;;;;;;;;;;;18.00;55.70;;;;;;5040717;28;19913;-74
2021/05/01 01:39:27;;;;;;;;;;;17.90;55.70;;;;;;5042429;28;19945;-74
2021/05/01 01:41:53;;;;;;;;;;;17.80;55.90;;;;;;5057565;28;19909;-74
2021/05/01 01:44:19;;;;;;;;;;;17.70;56.00;;;;;;5073574;28;19931;-74
2021/05/01 01:46:45;;;;;;;;;;;17.70;56.60;;;;;;5039606;28;19914;-74
2021/05/01 01:49:11;;;;;;;;;;;17.60;56.60;;;;;;5049706;28;20008;-74
2021/05/01 01:51:37;;;;;;;;;;;17.60;56.60;;;;;;5035017;28;19914;-75
2021/05/01 01:54:04;;;;;;;;;;;17.50;57.10;;;;;;5030269;28;19914;-74
2021/05/01 01:56:30;;;;;;;;;;;17.40;57.10;;;;;;5044920;28;20375;-74
2021/05/01 01:58:56;;;;;;;;;;;17.40;57.70;;;;;;5063015;28;19920;-74
2021/05/01 02:01:22;;;;;;;;;;;17.20;57.40;;;;;;5056371;28;19910;-75
2021/05/01 02:03:48;;;;;;;;;;;17.20;58.00;;;;;;5038529;28;20698;-74
2021/05/01 02:06:16;;;;;;;;;;;17.20;58.30;;;;;;5041059;28;19917;-74
2021/05/01 02:08:43;;;;;;;;;;;17.10;58.00;;;;;;5055842;28;19936;-74
2021/05/01 02:11:09;;;;;;;;;;;17.00;58.20;;;;;;5044407;28;20012;-76
2021/05/01 02:13:35;;;;;;;;;;;17.00;58.30;;;;;;5034169;28;19920;-74
2021/05/01 02:16:01;;;;;;;;;;;16.90;58.40;;;;;;5058438;28;19944;-74
2021/05/01 02:18:28;;;;;;;;;;;16.90;58.80;;;;;;5057452;28;19913;-75
2021/05/01 02:20:54;;;;;;;;;;;16.80;58.30;;;;;;5060107;28;19956;-76
2021/05/01 02:23:20;;;;;;;;;;;16.80;59.00;;;;;;5042694;28;19932;-75
2021/05/01 02:25:46;;;;;;;;;;;16.90;59.10;;;;;;5035770;28;19913;-74
2021/05/01 02:28:12;;;;;;;;;;;16.80;59.60;;;;;;5040149;28;19976;-76
2021/05/01 02:30:38;;;;;;;;;;;16.80;59.50;;;;;;5043276;28;19913;-75
2021/05/01 02:33:05;;;;;;;;;;;16.70;59.60;;;;;;5045492;28;19924;-75
2021/05/01 02:35:33;;;;;;;;;;;16.50;59.70;;;;;;5036982;28;19913;-74
2021/05/01 02:37:59;;;;;;;;;;;16.40;59.70;;;;;;5038866;28;19920;-76
2021/05/01 02:40:30;;;;;;;;;;;16.40;59.70;;;;;;5045829;28;19913;-75
2021/05/01 02:42:56;;;;;;;;;;;16.30;59.30;;;;;;5058921;28;19967;-75
2021/05/01 02:45:22;;;;;;;;;;;16.40;59.90;;;;;;5026058;28;20397;-75
2021/05/01 02:47:49;;;;;;;;;;;16.30;60.00;;;;;;5035098;28;19920;-75
2021/05/01 02:50:16;;;;;;;;;;;16.40;59.30;;;;;;5038657;28;20022;-74
2021/05/01 02:52:42;;;;;;;;;;;16.20;59.50;;;;;;5022687;28;19910;-75
2021/05/01 02:55:09;;;;;;;;;;;16.40;58.90;;;;;;5030088;28;19913;-76
2021/05/01 02:57:35;;;;;;;;;;;16.20;59.30;;;;;;5038692;28;19948;-75
2021/05/01 03:00:03;;;;;;;;;;;16.30;59.60;;;;;;5051635;28;19913;-75
2021/05/01 03:02:30;;;;;;;;;;;16.30;58.80;;;;;;5053439;28;19913;-75
2021/05/01 03:04:56;;;;;;;;;;;16.20;58.70;;;;;;5047493;28;19917;-75
2021/05/01 03:07:23;;;;;;;;;;;16.20;58.60;;;;;;5049655;28;19910;-75
2021/05/01 03:09:49;;;;;;;;;;;16.20;59.40;;;;;;5047578;28;19920;-75
2021/05/01 03:12:15;;;;;;;;;;;16.10;59.90;;;;;;5058985;28;20302;-74
2021/05/01 03:14:41;;;;;;;;;;;16.20;59.30;;;;;;5043820;28;19909;-74
2021/05/01 03:17:07;;;;;;;;;;;16.30;61.20;;;;;;5044918;28;19914;-74
2021/05/01 03:19:34;;;;;;;;;;;16.30;59.40;;;;;;5049501;28;19909;-74
2021/05/01 03:22:00;;;;;;;;;;;16.20;60.10;;;;;;5058932;28;19924;-75
2021/05/01 03:24:26;;;;;;;;;;;16.30;61.90;;;;;;5046299;28;19924;-74
2021/05/01 03:26:52;;;;;;;;;;;16.30;61.40;;;;;;5041035;28;19924;-75
2021/05/01 03:29:18;;;;;;;;;;;16.20;62.20;;;;;;5069189;28;19910;-74
2021/05/01 03:31:44;;;;;;;;;;;16.10;61.50;;;;;;5054184;28;19909;-74
2021/05/01 03:34:10;;;;;;;;;;;16.00;61.90;;;;;;5050604;28;20224;-74
2021/05/01 03:36:36;;;;;;;;;;;16.00;62.00;;;;;;5041691;28;19909;-74
2021/05/01 03:39:02;;;;;;;;;;;16.00;62.40;;;;;;5043646;28;19972;-74
2021/05/01 03:41:28;;;;;;;;;;;15.90;62.10;;;;;;5052955;28;19901;-74
2021/05/01 03:43:54;;;;;;;;;;;15.90;61.40;;;;;;5056611;28;19916;-74
2021/05/01 03:46:20;;;;;;;;;;;15.80;62.00;;;;;;5055425;28;19913;-74
2021/05/01 03:48:47;;;;;;;;;;;15.80;61.70;;;;;;5055034;28;19913;-74
2021/05/01 03:51:13;;;;;;;;;;;15.80;62.60;;;;;;5044696;28;19957;-74
2021/05/01 03:53:39;;;;;;;;;;;16.00;63.80;;;;;;5035288;28;19909;-74
2021/05/01 03:56:05;;;;;;;;;;;15.80;62.60;;;;;;5044608;28;19917;-74
2021/05/01 03:58:31;;;;;;;;;;;15.90;63.00;;;;;;5037101;28;19945;-74
2021/05/01 04:00:57;;;;;;;;;;;15.80;63.00;;;;;;5045814;28;19919;-74
2021/05/01 04:03:23;;;;;;;;;;;15.70;63.40;;;;;;5054710;28;19921;-74
2021/05/01 04:05:49;;;;;;;;;;;15.70;63.10;;;;;;5054576;28;19935;-74
2021/05/01 04:08:15;;;;;;;;;;;15.60;63.10;;;;;;5043036;28;19917;-73
2021/05/01 04:10:41;;;;;;;;;;;15.80;64.30;;;;;;5055333;28;19920;-74
2021/05/01 04:13:07;;;;;;;;;;;15.80;64.00;;;;;;5070217;28;19926;-74
2021/05/01 04:15:33;;;;;;;;;;;15.70;63.30;;;;;;5077727;28;19921;-74
2021/05/01 04:17:59;;;;;;;;;;;15.70;64.00;;;;;;5062802;28;19977;-73
2021/05/01 04:20:25;;;;;;;;;;;15.60;63.10;;;;;;5058521;28;19913;-74
2021/05/01 04:22:52;;;;;;;;;;;15.60;63.40;;;;;;5039139;28;19914;-74
2021/05/01 04:25:18;;;;;;;;;;;15.70;63.20;;;;;;5054408;28;19909;-74
2021/05/01 04:27:44;;;;;;;;;;;15.50;62.90;;;;;;5061125;28;20051;-74
2021/05/01 04:30:12;;;;;;;;;;;15.40;62.70;;;;;;5064394;28;19987;-74
2021/05/01 04:32:38;;;;;;;;;;;15.40;61.90;;;;;;5063874;28;19940;-74
2021/05/01 04:35:04;;;;;;;;;;;15.50;63.40;;;;;;5060040;28;20000;-74
2021/05/01 04:37:30;;;;;;;;;;;15.60;62.70;;;;;;5060256;28;19920;-74
2021/05/01 04:39:57;;;;;;;;;;;15.60;62.40;;;;;;5059665;28;19909;-74
2021/05/01 04:42:23;;;;;;;;;;;15.70;62.60;;;;;;5059087;28;20076;-74
2021/05/01 04:44:49;;;;;;;;;;;15.60;62.30;;;;;;5060037;28;19992;-74
2021/05/01 04:47:15;;;;;;;;;;;15.70;62.90;;;;;;5060353;28;19972;-74
2021/05/01 04:49:43;;;;;;;;;;;15.60;63.00;;;;;;5072932;28;19923;-74
2021/05/01 04:52:09;;;;;;;;;;;15.80;63.90;;;;;;5073686;28;19913;-74
2021/05/01 04:54:35;;;;;;;;;;;15.70;62.50;;;;;;5060612;28;19901;-74
2021/05/01 04:57:01;;;;;;;;;;;15.50;63.10;;;;;;5059271;28;19947;-74
2021/05/01 04:59:27;;;;;;;;;;;15.70;62.70;;;;;;5058500;28;19917;-74
2021/05/01 05:01:53;;;;;;;;;;;15.70;63.30;;;;;;5051682;28;20251;-75
2021/05/01 05:04:19;;;;;;;;;;;15.80;63.40;;;;;;5056820;28;19913;-74
2021/05/01 05:06:45;;;;;;;;;;;15.70;62.10;;;;;;5058622;28;19965;-74
2021/05/01 05:09:11;;;;;;;;;;;15.60;62.10;;;;;;5057503;28;19910;-74
2021/05/01 05:11:37;;;;;;;;;;;15.80;63.90;;;;;;5053748;28;19909;-74
2021/05/01 05:14:03;;;;;;;;;;;16.00;63.50;;;;;;5056111;28;19920;-74
2021/05/01 05:16:29;;;;;;;;;;;15.80;62.90;;;;;;5056202;28;19927;-74
2021/05/01 05:18:56;;;;;;;;;;;15.70;62.90;;;;;;5056499;28;19961;-74
2021/05/01 05:21:22;;;;;;;;;;;15.80;64.40;;;;;;5056034;28;19952;-74
2021/05/01 05:23:49;;;;;;;;;;;15.80;64.50;;;;;;5053239;28;19959;-75
2021/05/01 05:26:15;;;;;;;;;;;15.90;63.80;;;;;;5055614;28;19972;-74
2021/05/01 05:28:41;;;;;;;;;;;15.80;63.40;;;;;;5058397;28;19909;-74
2021/05/01 05:31:07;;;;;;;;;;;15.80;63.70;;;;;;5058886;28;20034;-74
2021/05/01 05:33:33;;;;;;;;;;;15.90;64.60;;;;;;5057879;28;19909;-74
2021/05/01 05:35:59;;;;;;;;;;;15.90;63.80;;;;;;5060161;28;19973;-74
2021/05/01 05:38:25;;;;;;;;;;;15.90;64.00;;;;;;5061043;28;19992;-74
2021/05/01 05:40:51;;;;;;;;;;;15.70;63.60;;;;;;5058745;28;19928;-75
2021/05/01 05:43:17;;;;;;;;;;;15.60;64.40;;;;;;5055733;28;19897;-74
2021/05/01 05:45:45;;;;;;;;;;;15.70;64.70;;;;;;5059334;28;19928;-74
2021/05/01 05:48:11;;;;;;;;;;;15.50;64.10;;;;;;5059096;28;19913;-74
2021/05/01 05:50:37;;;;;;;;;;;15.60;64.00;;;;;;5058473;28;19948;-74
2021/05/01 05:53:03;;;;;;;;;;;15.60;65.10;;;;;;5056599;28;19920;-74
2021/05/01 05:55:29;;;;;;;;;;;15.70;64.40;;;;;;5058294;28;20412;-74
2021/05/01 05:57:56;;;;;;;;;;;15.40;64.40;;;;;;5060146;28;19917;-74
2021/05/01 06:00:23;;;;;;;;;;;15.30;64.90;;;;;;5059561;28;19897;-74
2021/05/01 06:02:59;;;;;;;;;;;15.40;64.00;;;;;;5107153;22;19978;-71
2021/05/01 06:05:29;;;;;;;;;;;15.40;64.20;;;;;;5036140;28;19917;-71
2021/05/01 06:07:58;;;;;;;;;;;15.40;64.00;;;;;;5046172;28;19913;-71
2021/05/01 06:10:25;;;;;;;;;;;15.50;64.10;;;;;;5035640;28;19925;-72
2021/05/01 06:12:52;;;;;;;;;;;15.50;64.10;;;;;;5053360;28;19928;-71
2021/05/01 06:15:18;;;;;;;;;;;15.40;63.70;;;;;;5042986;28;20382;-71
2021/05/01 06:17:45;;;;;;;;;;;15.30;65.90;;;;;;5035929;28;19913;-72
2021/05/01 06:20:12;;;;;;;;;;;15.20;65.20;;;;;;5053639;28;19913;-72
2021/05/01 06:22:39;;;;;;;;;;;15.40;64.70;;;;;;5023117;28;19963;-72
2021/05/01 06:25:09;;;;;;;;;;;15.30;64.20;;;;;;5037155;28;20311;-72
2021/05/01 06:27:41;;;;;;;;;;;15.50;64.30;;;;;;5035324;28;20286;-72
2021/05/01 06:30:08;;;;;;;;;;;15.50;65.40;;;;;;5031761;28;19922;-72
2021/05/01 06:32:34;;;;;;;;;;;15.70;65.30;;;;;;5035479;28;19913;-72
2021/05/01 06:35:09;;;;;;;;;;;15.60;64.70;;;;;;5037514;28;19964;-72
2021/05/01 06:37:37;;;;;;;;;;;15.50;65.30;;;;;;5053119;28;19913;-72
2021/05/01 06:40:09;;;;;;;;;;;15.50;64.90;;;;;;5038642;28;20246;-71
2021/05/01 06:42:39;;;;;;;;;;;15.50;64.10;;;;;;5019923;28;19917;-72
2021/05/01 06:45:10;;;;;;;;;;;15.50;64.40;;;;;;5034457;28;20295;-71
2021/05/01 06:47:48;;;;;;;;;;;15.60;65.40;;;;;;5040017;28;19912;-72
2021/05/01 06:50:15;;;;;;;;;;;15.50;65.40;;;;;;5047736;28;20008;-71
2021/05/01 06:52:44;;;;;;;;;;;15.60;67.10;;;;;;5040581;28;19917;-71
2021/05/01 06:55:12;;;;;;;;;;;15.50;66.00;;;;;;5040165;28;19917;-72
2021/05/01 06:57:42;;;;;;;;;;;15.60;65.50;;;;;;5061431;28;19909;-71
2021/05/01 07:00:09;;;;;;;;;;;15.40;65.00;;;;;;5039479;28;19916;-71
2021/05/01 07:02:41;;;;;;;;;;;15.30;65.70;;;;;;5036170;28;20016;-71
2021/05/01 07:05:18;;;;;;;;;;;15.20;65.80;;;;;;5015111;28;19956;-71
2021/05/01 07:07:44;;;;;;;;;;;15.30;65.50;;;;;;5015611;28;20251;-71
2021/05/01 07:10:13;;;;;;;;;;;15.20;65.20;;;;;;5020194;28;19955;-71
2021/05/01 07:12:39;;;;;;;;;;;15.10;66.00;;;;;;5042359;28;20208;-71
2021/05/01 07:15:06;;;;;;;;;;;15.20;65.70;;;;;;5037006;28;19913;-71
2021/05/01 07:17:32;;;;;;;;;;;15.50;65.50;;;;;;5022930;28;19920;-71
2021/05/01 07:20:00;;;;;;;;;;;15.30;65.20;;;;;;5031818;28;19913;-71
2021/05/01 07:22:26;;;;;;;;;;;15.40;66.00;;;;;;5027444;28;19913;-71
2021/05/01 07:24:53;;;;;;;;;;;15.50;65.40;;;;;;5032820;28;19923;-71
2021/05/01 07:27:19;;;;;;;;;;;15.60;65.50;;;;;;5036197;28;19924;-71
2021/05/01 07:29:46;;;;;;;;;;;15.40;65.80;;;;;;5038977;28;20019;-71
2021/05/01 07:32:15;;;;;;;;;;;15.50;66.10;;;;;;5053760;28;19912;-71
2021/05/01 07:34:49;;;;;;;;;;;15.50;65.40;;;;;;5037993;28;19920;-71
2021/05/01 07:37:17;;;;;;;;;;;15.50;65.20;;;;;;5032026;28;19912;-71
2021/05/01 07:39:47;;;;;;;;;;;15.30;65.00;;;;;;5034200;28;19913;-71
2021/05/01 07:42:14;;;;;;;;;;;15.40;65.50;;;;;;5049095;28;20266;-71
2021/05/01 07:44:40;;;;;;;;;;;15.40;65.10;;;;;;5052377;28;19970;-71
2021/05/01 07:47:06;;;;;;;;;;;15.40;65.50;;;;;;5053715;28;19913;-71
2021/05/01 07:49:32;;;;;;;;;;;15.60;65.50;;;;;;5048510;28;20298;-71
2021/05/01 07:52:00;;;;;;;;;;;15.40;64.50;;;;;;5034058;28;19909;-71
2021/05/01 07:54:26;;;;;;;;;;;15.30;64.80;;;;;;5043801;28;19913;-71
2021/05/01 07:56:52;;;;;;;;;;;15.50;65.90;;;;;;5038520;28;19970;-71
2021/05/01 07:59:18;;;;;;;;;;;15.50;65.60;;;;;;5041937;28;19917;-71
2021/05/01 08:01:44;;;;;;;;;;;15.40;65.60;;;;;;5034372;28;19949;-71
2021/05/01 08:04:10;;;;;;;;;;;15.40;64.60;;;;;;5042788;28;19920;-71
2021/05/01 08:06:37;;;;;;;;;;;15.40;65.30;;;;;;5037593;28;20089;-70
2021/05/01 08:09:03;;;;;;;;;;;15.30;64.80;;;;;;5051629;28;20257;-71
2021/05/01 08:11:29;;;;;;;;;;;15.00;64.90;;;;;;5044951;28;20301;-71
2021/05/01 08:13:55;;;;;;;;;;;15.20;65.10;;;;;;5044227;28;19921;-71
2021/05/01 08:16:21;;;;;;;;;;;15.10;65.90;;;;;;5041174;28;19936;-71
2021/05/01 08:18:47;;;;;;;;;;;15.10;65.40;;;;;;5040891;28;20350;-71
2021/05/01 08:21:13;;;;;;;;;;;15.10;65.30;;;;;;5040343;28;19910;-71
2021/05/01 08:23:39;;;;;;;;;;;15.00;65.40;;;;;;5033998;28;19952;-72
2021/05/01 08:26:06;;;;;;;;;;;15.00;65.20;;;;;;5033960;28;19913;-71
2021/05/01 08:28:32;;;;;;;;;;;14.80;66.10;;;;;;5052896;28;20370;-71
2021/05/01 08:30:58;;;;;;;;;;;14.80;65.90;;;;;;5040788;28;19951;-71
2021/05/01 08:33:24;;;;;;;;;;;14.60;65.60;;;;;;5051986;28;19913;-71
2021/05/01 08:35:51;;;;;;;;;;;14.60;65.90;;;;;;5053587;28;19921;-71
2021/05/01 08:38:20;;;;;;;;;;;14.60;65.20;;;;;;5035973;28;19913;-72
2021/05/01 08:40:46;;;;;;;;;;;14.60;65.70;;;;;;5048466;28;20369;-71
2021/05/01 08:43:12;;;;;;;;;;;14.70;66.30;;;;;;5034621;28;19921;-71
2021/05/01 08:45:38;;;;;;;;;;;14.60;65.30;;;;;;5043974;28;20382;-71
2021/05/01 08:48:04;;;;;;;;;;;14.60;65.90;;;;;;5053287;28;19963;-72
2021/05/01 08:50:39;;;;;;;;;;;14.60;65.70;;;;;;5053604;28;19983;-71
2021/05/01 08:53:06;;;;;;;;;;;14.50;65.20;;;;;;5053789;28;19916;-71
2021/05/01 08:55:35;;;;;;;;;;;14.50;65.80;;;;;;5040691;28;19916;-71
2021/05/01 08:58:05;;;;;;;;;;;14.50;65.90;;;;;;5014251;28;19961;-71
2021/05/01 09:00:31;;;;;;;;;;;14.50;66.90;;;;;;5029904;28;20037;-71
2021/05/01 09:03:00;;;;;;;;;;;14.70;66.10;;;;;;5043964;28;19924;-71
2021/05/01 09:05:26;;;;;;;;;;;14.50;67.10;;;;;;5057280;28;19917;-71
2021/05/01 09:07:53;;;;;;;;;;;14.60;65.80;;;;;;5057142;28;20006;-71
2021/05/01 09:10:19;;;;;;;;;;;14.70;66.20;;;;;;5056689;28;19913;-72
2021/05/01 09:12:48;;;;;;;;;;;14.80;66.20;;;;;;5056939;28;20342;-71
2021/05/01 09:15:17;;;;;;;;;;;15.10;66.00;;;;;;5041849;28;19986;-71
2021/05/01 09:17:45;;;;;;;;;;;15.00;65.30;;;;;;5037149;28;19913;-71
2021/05/01 09:20:12;;;;;;;;;;;14.90;65.10;;;;;;5037249;28;19953;-71
2021/05/01 09:22:56;;;;;;;;;;;14.90;65.90;;;;;;5040626;28;20323;-71
2021/05/01 09:25:24;;;;;;;;;;;14.90;65.60;;;;;;5056518;28;19916;-71
2021/05/01 09:28:07;;;;;;;;;;;14.90;65.10;;;;;;5043940;28;19920;-72
2021/05/01 09:30:35;;;;;;;;;;;14.80;66.30;;;;;;5038034;28;20215;-71
2021/05/01 09:33:19;;;;;;;;;;;15.00;65.20;;;;;;5036319;28;20350;-71
2021/05/01 09:35:47;;;;;;;;;;;14.90;65.00;;;;;;5036794;28;19921;-71
2021/05/01 09:38:14;;;;;;;;;;;15.00;64.60;;;;;;5036634;28;19980;-71
2021/05/01 09:40:47;;;;;;;;;;;15.20;64.90;;;;;;5036518;28;19953;-71
2021/05/01 09:43:13;;;;;;;;;;;15.20;63.90;;;;;;5036469;28;20358;-71
2021/05/01 09:45:39;;;;;;;;;;;14.90;63.90;;;;;;5018818;28;19979;-71
2021/05/01 09:48:18;;;;;;;;;;;14.90;64.50;;;;;;5036157;28;20004;-71
2021/05/01 09:50:46;;;;;;;;;;;14.90;64.50;;;;;;5036324;28;19913;-71
2021/05/01 09:53:14;;;;;;;;;;;15.00;65.00;;;;;;5040877;28;20315;-71
2021/05/01 09:55:54;;;;;;;;;;;14.70;65.10;;;;;;5040408;28;19917;-71
2021/05/01 09:58:23;;;;;;;;;;;14.70;65.50;;;;;;5036290;28;20014;-71
2021/05/01 10:00:50;;;;;;;;;;;14.80;66.00;;;;;;5036590;28;19999;-71
2021/05/01 10:03:19;;;;;;;;;;;14.80;66.10;;;;;;5036392;28;19921;-71
2021/05/01 10:05:46;;;;;;;;;;;14.50;65.50;;;;;;5035764;28;19920;-71
2021/05/01 10:08:13;;;;;;;;;;;14.60;66.00;;;;;;5035975;28;19913;-71
2021/05/01 10:10:42;;;;;;;;;;;14.50;65.60;;;;;;5036096;28;19914;-71
2021/05/01 10:13:09;;;;;;;;;;;14.70;67.30;;;;;;5035797;28;19909;-71
2021/05/01 10:15:35;;;;;;;;;;;14.80;66.10;;;;;;5018695;28;19921;-71
2021/05/01 10:18:08;;;;;;;;;;;14.80;67.00;;;;;;5036275;28;19920;-71
2021/05/01 10:20:39;;;;;;;;;;;14.70;66.70;;;;;;5036047;28;20305;-71
2021/05/01 10:23:05;;;;;;;;;;;14.60;66.20;;;;;;5036267;28;19967;-71
2021/05/01 10:25:33;;;;;;;;;;;14.40;67.30;;;;;;5035830;28;19925;-71
2021/05/01 10:28:12;;;;;;;;;;;14.30;66.90;;;;;;5035794;28;19909;-71
2021/05/01 10:30:44;;;;;;;;;;;14.30;67.20;;;;;;5033976;28;19978;-71
2021/05/01 10:33:23;;;;;;;;;;;14.20;67.00;;;;;;5033083;28;19920;-71
2021/05/01 10:35:52;;;;;;;;;;;14.30;66.30;;;;;;5035475;28;19920;-71
2021/05/01 10:38:19;;;;;;;;;;;14.30;66.40;;;;;;5035783;28;19909;-71
2021/05/01 10:40:52;;;;;;;;;;;14.20;66.60;;;;;;5035334;28;19919;-70
2021/05/01 10:43:19;;;;;;;;;;;14.20;66.30;;;;;;5035485;28;19970;-71
2021/05/01 10:45:50;;;;;;;;;;;14.30;65.80;;;;;;5035470;28;20293;-71
2021/05/01 10:48:16;;;;;;;;;;;14.30;65.20;;;;;;5035378;28;20291;-71
2021/05/01 10:50:42;;;;;;;;;;;14.30;66.10;;;;;;5035057;28;20339;-71
2021/05/01 10:53:16;;;;;;;;;;;14.30;65.30;;;;;;5034501;28;20003;-71
2021/05/01 10:55:44;;;;;;;;;;;14.70;67.20;;;;;;5037782;28;19978;-70
2021/05/01 10:58:10;;;;;;;;;;;14.70;66.70;;;;;;5035382;28;20264;-71
2021/05/01 11:00:45;;;;;;;;;;;14.50;66.30;;;;;;5036572;28;20290;-70
2021/05/01 11:03:14;;;;;;;;;;;14.40;66.50;;;;;;5037701;28;19999;-72
2021/05/01 11:05:42;;;;;;;;;;;14.40;66.20;;;;;;5037987;28;19917;-71
2021/05/01 11:08:26;;;;;;;;;;;14.40;66.70;;;;;;5034479;28;20322;-71
2021/05/01 11:10:54;;;;;;;;;;;14.30;68.80;;;;;;5034379;28;20365;-70
2021/05/01 11:13:24;;;;;;;;;;;14.30;68.30;;;;;;5034879;28;19913;-71
2021/05/01 11:15:50;;;;;;;;;;;14.30;67.60;;;;;;5034835;28;20047;-71
2021/05/01 11:18:20;;;;;;;;;;;14.30;67.40;;;;;;5034723;28;19913;-71
2021/05/01 11:20:46;;;;;;;;;;;14.30;66.60;;;;;;5034756;28;19909;-71
2021/05/01 11:23:14;;;;;;;;;;;14.40;65.70;;;;;;5034370;28;19909;-71
2021/05/01 11:25:41;;;;;;;;;;;14.50;66.00;;;;;;5034117;28;20343;-71
2021/05/01 11:28:07;;;;;;;;;;;14.60;66.20;;;;;;5034228;28;20274;-71
2021/05/01 11:30:33;;;;;;;;;;;14.60;66.30;;;;;;5016889;28;19916;-71
2021/05/01 11:33:02;;;;;;;;;;;14.50;66.60;;;;;;5034116;28;20007;-71
2021/05/01 11:35:28;;;;;;;;;;;14.30;66.70;;;;;;5034042;28;19952;-71
2021/05/01 11:37:56;;;;;;;;;;;14.50;66.50;;;;;;5033355;28;19913;-70
2021/05/01 11:40:23;;;;;;;;;;;14.40;66.20;;;;;;5033877;28;20254;-71
2021/05/01 11:42:50;;;;;;;;;;;14.40;65.80;;;;;;5034394;28;19909;-71
2021/05/01 11:45:18;;;;;;;;;;;14.30;66.80;;;;;;5034177;28;19925;-71
2021/05/01 11:47:48;;;;;;;;;;;14.40;65.80;;;;;;5034522;28;20310;-71
2021/05/01 11:50:15;;;;;;;;;;;14.40;65.60;;;;;;5034158;28;19953;-71
2021/05/01 11:52:56;;;;;;;;;;;14.40;65.30;;;;;;5034654;28;19909;-71
2021/05/01 11:55:31;;;;;;;;;;;14.40;64.80;;;;;;5034356;28;19960;-71
2021/05/01 11:58:01;;;;;;;;;;;14.30;65.20;;;;;;5034279;28;20230;-71
2021/05/01 12:00:28;;;;;;;;;;;14.30;65.30;;;;;;5033867;28;19917;-71
2021/05/01 12:02:54;;;;;;;;;;;14.20;65.40;;;;;;5033932;28;20343;-71
2021/05/01 12:05:23;;;;;;;;;;;14.20;65.20;;;;;;5033931;28;19917;-71
2021/05/01 12:07:52;;;;;;;;;;;14.20;66.10;;;;;;5033820;28;19937;-71
2021/05/01 12:10:19;;;;;;;;;;;14.10;65.40;;;;;;5033499;28;20027;-71
2021/05/01 12:12:51;;;;;;;;;;;14.10;65.80;;;;;;5034131;28;19952;-71
2021/05/01 12:15:17;;;;;;;;;;;14.10;65.40;;;;;;5033974;28;19913;-71
2021/05/01 12:17:54;;;;;;;;;;;14.10;67.20;;;;;;5033613;28;20354;-71
2021/05/01 12:20:23;;;;;;;;;;;14.10;65.80;;;;;;5033802;28;19909;-71
2021/05/01 12:22:49;;;;;;;;;;;14.10;66.50;;;;;;5033823;28;19917;-71
2021/05/01 12:25:30;;;;;;;;;;;14.10;67.00;;;;;;5016349;28;19928;-71
2021/05/01 12:27:59;;;;;;;;;;;14.30;66.50;;;;;;5034052;28;20403;-71
2021/05/01 12:30:40;;;;;;;;;;;14.40;68.00;;;;;;5033122;28;20351;-71
2021/05/01 12:33:21;;;;;;;;;;;14.10;70.90;;;;;;5031453;28;19917;-71
2021/05/01 12:35:51;;;;;;;;;;;14.00;71.00;;;;;;5035711;28;19920;-71
2021/05/01 12:38:18;;;;;;;;;;;14.10;71.00;;;;;;5037187;28;19928;-71
2021/05/01 12:40:47;;;;;;;;;;;14.20;68.30;;;;;;5036086;28;20216;-71
2021/05/01 12:43:46;;;;;;;;;;;14.10;71.80;;;;;;5037451;28;19924;-71
2021/05/01 12:46:13;;;;;;;;;;;14.20;68.20;;;;;;4995492;28;19918;-71
2021/05/01 12:48:48;;;;;;;;;;;14.40;68.30;;;;;;5037138;28;19920;-71
2021/05/01 12:51:15;;;;;;;;;;;14.30;67.60;;;;;;5037193;28;19913;-70
2021/05/01 12:53:42;;;;;;;;;;;14.40;67.80;;;;;;5046434;28;19913;-71
2021/05/01 12:56:26;;;;;;;;;;;14.50;68.20;;;;;;5037550;28;19924;-71
2021/05/01 12:59:10;;;;;;;;;;;14.50;67.30;;;;;;5037687;28;19920;-71
2021/05/01 13:01:36;;;;;;;;;;;14.50;67.30;;;;;;5037998;28;20016;-70
2021/05/01 13:04:12;;;;;;;;;;;14.50;68.90;;;;;;5038672;28;19917;-70
2021/05/01 13:06:38;;;;;;;;;;;14.50;71.70;;;;;;5042661;28;19910;-70
2021/05/01 13:09:06;;;;;;;;;;;14.60;68.70;;;;;;5043136;28;19914;-71
2021/05/01 13:11:32;;;;;;;;;;;14.50;70.60;;;;;;5037067;28;19913;-71
2021/05/01 13:14:15;;;;;;;;;;;14.50;70.20;;;;;;5037145;28;19923;-70
2021/05/01 13:16:59;;;;;;;;;;;14.50;70.60;;;;;;5037045;28;19995;-70
2021/05/01 13:19:25;;;;;;;;;;;14.30;73.30;;;;;;5037390;28;19964;-71
2021/05/01 13:21:58;;;;;;;;;;;14.30;70.60;;;;;;5036035;28;19920;-71
2021/05/01 13:24:31;;;;;;;;;;;14.40;70.00;;;;;;5021156;28;19940;-71
2021/05/01 13:26:58;;;;;;;;;;;14.50;69.10;;;;;;5037021;28;20047;-71
2021/05/01 13:29:32;;;;;;;;;;;14.50;69.20;;;;;;5037202;28;19909;-71
2021/05/01 13:31:58;;;;;;;;;;;14.50;68.80;;;;;;5036283;28;19921;-71
2021/05/01 13:34:24;;;;;;;;;;;14.50;68.40;;;;;;5036463;28;19913;-71
2021/05/01 13:36:50;;;;;;;;;;;14.50;68.60;;;;;;5037161;28;20350;-71
2021/05/01 13:39:17;;;;;;;;;;;14.50;68.70;;;;;;5036506;28;19917;-71
2021/05/01 13:42:04;;;;;;;;;;;14.60;68.20;;;;;;5036714;28;19916;-70
2021/05/01 13:44:40;;;;;;;;;;;14.50;67.50;;;;;;5036180;28;19913;-71
2021/05/01 13:47:24;;;;;;;;;;;14.60;67.20;;;;;;5035579;28;19971;-71
2021/05/01 13:49:51;;;;;;;;;;;14.60;67.20;;;;;;5025123;28;19932;-71
2021/05/01 13:52:24;;;;;;;;;;;14.50;67.10;;;;;;5036170;28;19913;-71
2021/05/01 13:54:51;;;;;;;;;;;14.60;67.20;;;;;;5019082;28;20451;-71
2021/05/01 13:57:17;;;;;;;;;;;14.60;67.50;;;;;;5036583;28;19917;-71
2021/05/01 13:59:43;;;;;;;;;;;14.60;67.20;;;;;;5036230;28;19910;-71
2021/05/01 14:02:10;;;;;;;;;;;14.60;67.60;;;;;;5035961;28;19917;-70
2021/05/01 14:04:37;;;;;;;;;;;14.70;67.90;;;;;;5035952;28;19925;-71
2021/05/01 14:07:04;;;;;;;;;;;14.70;67.50;;;;;;5036079;28;19931;-71
2021/05/01 14:09:32;;;;;;;;;;;14.70;68.30;;;;;;5032249;28;19914;-71
2021/05/01 14:11:58;;;;;;;;;;;14.80;67.60;;;;;;5032414;28;19941;-71
2021/05/01 14:14:29;;;;;;;;;;;15.10;69.60;;;;;;5035142;28;19913;-71
2021/05/01 14:16:58;;;;;;;;;;;15.10;69.30;;;;;;5019162;28;20295;-70
2021/05/01 14:19:25;;;;;;;;;;;15.30;69.00;;;;;;5035957;28;19913;-71
2021/05/01 14:21:51;;;;;;;;;;;15.40;68.70;;;;;;5035911;28;19909;-71